createdAt,value
2022-09-12T00:00:28.082Z,96451.31
2022-09-12T00:02:56.414Z,96439.47
2022-09-12T00:05:24.346Z,96450.28
2022-09-12T00:07:52.286Z,96435.22
2022-09-12T00:10:20.237Z,96438.03
2022-09-12T00:12:48.157Z,96441.44
2022-09-12T00:15:16.083Z,96439.63
2022-09-12T00:17:45.633Z,96438.34
2022-09-12T00:20:13.537Z,96439.59
2022-09-12T00:22:41.429Z,96413.81
2022-09-12T00:25:09.606Z,96433.09
2022-09-12T00:27:37.538Z,96395.47
2022-09-12T00:30:06.640Z,96423.09
2022-09-12T00:32:35.165Z,96433.56
2022-09-12T00:35:04.721Z,96430.59
2022-09-12T00:37:32.651Z,96418.44
2022-09-12T00:40:00.592Z,96428.38
2022-09-12T00:42:28.526Z,96426.09
2022-09-12T00:44:56.593Z,96417.94
2022-09-12T00:47:26.812Z,96418.00
2022-09-12T00:49:59.269Z,96412.16
2022-09-12T00:52:31.058Z,96417.50
2022-09-12T00:55:03.106Z,96417.81
2022-09-12T00:57:34.365Z,96413.22
2022-09-12T01:00:10.909Z,96397.78
2022-09-12T01:02:39.083Z,96398.69
2022-09-12T01:05:08.224Z,96411.69
2022-09-12T01:07:40.194Z,96412.91
2022-09-12T01:10:09.692Z,96410.25
2022-09-12T01:12:40.398Z,96396.22
2022-09-12T01:15:09.429Z,96357.28
2022-09-12T01:17:48.867Z,96405.56
2022-09-12T01:20:44.114Z,96395.53
2022-09-12T01:23:54.320Z,96388.38
2022-09-12T01:26:44.328Z,96389.56
2022-09-12T01:29:25.705Z,96399.50
2022-09-12T01:32:00.544Z,96393.78
2022-09-12T01:34:33.857Z,96391.31
2022-09-12T01:37:07.205Z,96382.94
2022-09-12T01:39:39.804Z,96384.28
2022-09-12T01:42:15.249Z,96389.94
2022-09-12T01:44:49.492Z,96387.88
2022-09-12T01:47:22.422Z,96392.00
2022-09-12T01:49:57.193Z,96392.53
2022-09-12T01:52:27.824Z,96381.16
2022-09-12T01:55:00.517Z,96396.16
2022-09-12T01:57:30.876Z,96389.41
2022-09-12T02:00:01.872Z,96388.88
2022-09-12T02:02:35.264Z,96308.13
2022-09-12T02:05:06.701Z,96376.69
2022-09-12T02:07:38.565Z,96378.94
2022-09-12T02:10:09.277Z,96381.81
2022-09-12T02:12:40.705Z,96377.78
2022-09-12T02:15:10.726Z,96376.16
2022-09-12T02:17:43.328Z,96376.03
2022-09-12T02:20:25.971Z,96339.25
2022-09-12T02:23:04.744Z,96368.44
2022-09-12T02:25:33.012Z,96369.56
2022-09-12T02:28:03.389Z,96365.19
2022-09-12T02:30:35.425Z,96364.16
2022-09-12T02:33:08.365Z,96366.81
2022-09-12T02:35:40.480Z,96358.88
2022-09-12T02:38:10.963Z,96359.38
2022-09-12T02:40:39.132Z,96340.69
2022-09-12T02:43:07.618Z,96354.97
2022-09-12T02:45:36.022Z,96350.25
2022-09-12T02:48:07.529Z,96354.91
2022-09-12T02:50:35.752Z,96355.44
2022-09-12T02:53:05.057Z,96355.84
2022-09-12T02:55:33.894Z,96275.66
2022-09-12T02:58:02.756Z,96352.28
2022-09-12T03:00:32.682Z,96346.44
2022-09-12T03:03:22.785Z,96347.16
2022-09-12T03:05:56.983Z,96343.69
2022-09-12T03:08:44.345Z,96340.69
2022-09-12T03:11:43.908Z,96335.50
2022-09-12T03:14:23.129Z,96336.50
2022-09-12T03:16:58.369Z,96332.56
2022-09-12T03:19:33.697Z,96331.22
2022-09-12T03:22:05.574Z,96305.41
2022-09-12T03:24:35.846Z,96336.25
2022-09-12T03:27:09.661Z,96332.09
2022-09-12T03:29:38.622Z,96338.19
2022-09-12T03:32:07.511Z,96342.56
2022-09-12T03:34:37.021Z,96341.28
2022-09-12T03:37:05.165Z,96340.38
2022-09-12T03:39:33.295Z,96327.03
2022-09-12T03:42:01.210Z,96341.03
2022-09-12T03:44:29.212Z,96339.84
2022-09-12T03:46:57.108Z,96339.59
2022-09-12T03:49:25.010Z,96340.13
2022-09-12T03:51:54.268Z,96342.94
2022-09-12T03:54:22.253Z,96345.78
2022-09-12T03:56:50.186Z,96341.84
2022-09-12T03:59:18.121Z,96341.84
2022-09-12T04:01:46.014Z,96342.41
2022-09-12T04:04:13.905Z,96336.22
2022-09-12T04:06:42.806Z,96339.47
2022-09-12T04:09:12.192Z,96343.16
2022-09-12T04:11:40.124Z,96329.16
2022-09-12T04:14:08.278Z,96333.88
2022-09-12T04:16:36.296Z,96324.31
2022-09-12T04:19:04.321Z,96340.13
2022-09-12T04:21:32.316Z,96333.16
2022-09-12T04:24:00.234Z,96331.94
2022-09-12T04:26:29.982Z,96325.94
2022-09-12T04:28:57.901Z,96325.41
2022-09-12T04:31:26.789Z,96329.78
2022-09-12T04:33:56.069Z,96332.75
2022-09-12T04:36:24.414Z,96333.41
2022-09-12T04:38:53.157Z,96337.69
2022-09-12T04:41:22.188Z,96335.94
2022-09-12T04:43:54.138Z,96337.59
2022-09-12T04:46:22.281Z,96280.88
2022-09-12T04:48:55.942Z,96322.44
2022-09-12T04:51:27.803Z,96330.16
2022-09-12T04:53:57.683Z,96338.88
2022-09-12T04:56:26.397Z,96340.88
2022-09-12T04:58:57.518Z,96333.91
2022-09-12T05:01:25.535Z,96342.19
2022-09-12T05:03:53.565Z,96338.78
2022-09-12T05:06:22.804Z,96340.06
2022-09-12T05:08:51.145Z,96348.16
2022-09-12T05:11:24.722Z,96355.31
2022-09-12T05:13:55.988Z,96359.47
2022-09-12T05:16:25.019Z,96327.34
2022-09-12T05:18:53.001Z,96354.81
2022-09-12T05:21:23.188Z,96358.19
2022-09-12T05:23:52.882Z,96364.66
2022-09-12T05:26:21.630Z,96356.66
2022-09-12T05:28:49.913Z,96366.25
2022-09-12T05:31:20.938Z,96363.19
2022-09-12T05:33:50.199Z,96332.13
2022-09-12T05:36:19.929Z,96361.59
2022-09-12T05:38:48.221Z,96369.00
2022-09-12T05:41:21.865Z,96369.75
2022-09-12T05:43:53.893Z,96368.09
2022-09-12T05:46:25.689Z,96331.28
2022-09-12T05:48:56.337Z,96375.78
2022-09-12T05:51:26.567Z,96365.44
2022-09-12T05:53:56.723Z,96369.94
2022-09-12T05:56:26.059Z,96364.19
2022-09-12T05:58:55.862Z,96370.50
2022-09-12T06:01:25.959Z,96376.69
2022-09-12T06:03:55.369Z,96367.47
2022-09-12T06:06:25.270Z,96374.09
2022-09-12T06:08:54.866Z,96370.50
2022-09-12T06:11:24.060Z,96366.28
2022-09-12T06:13:52.061Z,96371.41
2022-09-12T06:16:21.416Z,96361.97
2022-09-12T06:18:52.125Z,96371.03
2022-09-12T06:21:20.113Z,96339.22
2022-09-12T06:23:48.178Z,96371.81
2022-09-12T06:26:17.547Z,96377.13
2022-09-12T06:28:46.330Z,96380.34
2022-09-12T06:31:16.453Z,96382.56
2022-09-12T06:33:46.875Z,96389.25
2022-09-12T06:36:17.793Z,96387.41
2022-09-12T06:38:46.358Z,96378.47
2022-09-12T06:41:14.662Z,96401.81
2022-09-12T06:43:43.148Z,96401.97
2022-09-12T06:46:12.340Z,96398.78
2022-09-12T06:48:42.110Z,96391.25
2022-09-12T06:51:13.390Z,96398.47
2022-09-12T06:53:43.215Z,96402.09
2022-09-12T06:56:12.373Z,96408.69
2022-09-12T06:58:41.077Z,96404.16
2022-09-12T07:01:10.840Z,96420.06
2022-09-12T07:03:39.326Z,96411.66
2022-09-12T07:06:08.634Z,96391.31
2022-09-12T07:08:37.129Z,96360.28
2022-09-12T07:11:12.587Z,96412.44
2022-09-12T07:13:40.939Z,96424.72
2022-09-12T07:16:10.108Z,96415.53
2022-09-12T07:18:39.171Z,96428.38
2022-09-12T07:21:08.516Z,96421.34
2022-09-12T07:23:36.452Z,96420.59
2022-09-12T07:26:05.007Z,96435.59
2022-09-12T07:28:35.409Z,96441.44
2022-09-12T07:31:07.488Z,96444.81
2022-09-12T07:33:36.195Z,96441.31
2022-09-12T07:36:05.255Z,96445.81
2022-09-12T07:38:33.305Z,96451.41
2022-09-12T07:41:01.784Z,96407.59
2022-09-12T07:43:29.681Z,96457.59
2022-09-12T07:45:59.037Z,96442.59
2022-09-12T07:48:28.423Z,96458.38
2022-09-12T07:51:00.712Z,96456.88
2022-09-12T07:53:31.744Z,96458.44
2022-09-12T07:55:59.702Z,96388.84
2022-09-12T07:58:27.882Z,96460.69
2022-09-12T08:00:55.762Z,96460.34
2022-09-12T08:03:25.053Z,96457.53
2022-09-12T08:05:52.958Z,96456.28
2022-09-12T08:08:20.858Z,96463.66
2022-09-12T08:10:48.743Z,96462.16
2022-09-12T08:13:16.657Z,96468.69
2022-09-12T08:15:44.604Z,96475.91
2022-09-12T08:18:12.578Z,96478.97
2022-09-12T08:20:42.066Z,96470.03
2022-09-12T08:23:10.094Z,96474.69
2022-09-12T08:25:37.982Z,96473.06
2022-09-12T08:28:05.906Z,96473.25
2022-09-12T08:30:33.882Z,96476.25
2022-09-12T08:33:01.801Z,96479.31
2022-09-12T08:35:29.695Z,96450.41
2022-09-12T08:37:59.278Z,96472.75
2022-09-12T08:40:27.262Z,96473.97
2022-09-12T08:43:00.229Z,96477.19
2022-09-12T08:45:34.030Z,96475.03
2022-09-12T08:48:04.622Z,96484.03
2022-09-12T08:50:33.542Z,96474.88
2022-09-12T08:53:04.823Z,96475.34
2022-09-12T08:55:35.752Z,96460.41
2022-09-12T08:58:12.161Z,96479.25
2022-09-12T09:00:47.310Z,96476.63
2022-09-12T09:03:36.862Z,96477.88
2022-09-12T09:06:08.303Z,96465.13
2022-09-12T09:08:47.928Z,96470.97
2022-09-12T09:11:29.651Z,96464.91
2022-09-12T09:14:24.854Z,96467.97
2022-09-12T09:16:54.118Z,96467.97
2022-09-12T09:19:26.522Z,96457.88
2022-09-12T09:21:56.697Z,96466.50
2022-09-12T09:24:29.862Z,96452.53
2022-09-12T09:26:59.525Z,96453.47
2022-09-12T09:29:31.314Z,96449.25
2022-09-12T09:32:01.636Z,96382.38
2022-09-12T09:34:32.098Z,96399.88
2022-09-12T09:37:04.924Z,96447.06
2022-09-12T09:39:43.948Z,96436.31
2022-09-12T09:42:22.109Z,96444.59
2022-09-12T09:44:50.137Z,96448.72
2022-09-12T09:47:19.245Z,96453.59
2022-09-12T09:49:47.656Z,96442.00
2022-09-12T09:52:17.676Z,96390.19
2022-09-12T09:54:50.272Z,96447.22
2022-09-12T09:57:40.796Z,96450.09
2022-09-12T10:00:30.710Z,96452.34
2022-09-12T10:03:11.448Z,96448.84
2022-09-12T10:05:47.498Z,96443.09
2022-09-12T10:08:22.203Z,96411.50
2022-09-12T10:11:01.992Z,96422.72
2022-09-12T10:13:39.506Z,96436.53
2022-09-12T10:16:19.968Z,96421.56
2022-09-12T10:18:51.277Z,96432.06
2022-09-12T10:21:28.141Z,96431.53
2022-09-12T10:24:05.402Z,96432.63
2022-09-12T10:26:37.412Z,96409.56
2022-09-12T10:29:12.548Z,96418.31
2022-09-12T10:31:47.397Z,96429.72
2022-09-12T10:34:27.931Z,96413.91
2022-09-12T10:37:01.664Z,96427.47
2022-09-12T10:39:31.020Z,96344.50
2022-09-12T10:42:01.455Z,96414.59
2022-09-12T10:44:51.792Z,96349.81
2022-09-12T10:47:22.012Z,96373.47
2022-09-12T10:49:51.192Z,96418.00
2022-09-12T10:52:23.682Z,96379.47
2022-09-12T10:54:52.039Z,96410.06
2022-09-12T10:57:52.841Z,96414.50
2022-09-12T11:00:27.698Z,96429.06
2022-09-12T11:03:03.493Z,96424.63
2022-09-12T11:05:41.062Z,96414.25
2022-09-12T11:08:15.977Z,96435.41
2022-09-12T11:10:51.637Z,96424.81
2022-09-12T11:13:30.207Z,96428.28
2022-09-12T11:16:13.622Z,96424.66
2022-09-12T11:19:07.473Z,96414.16
2022-09-12T11:21:46.450Z,96410.50
2022-09-12T11:25:02.706Z,96411.97
2022-09-12T11:27:40.710Z,96417.59
2022-09-12T11:30:12.993Z,96417.78
2022-09-12T11:32:53.349Z,96426.84
2022-09-12T11:35:27.614Z,96413.50
2022-09-12T11:38:26.594Z,96418.84
2022-09-12T11:40:56.162Z,96410.31
2022-09-12T11:43:30.714Z,96422.25
2022-09-12T11:46:02.850Z,96388.47
2022-09-12T11:48:38.698Z,96417.13
2022-09-12T11:51:09.221Z,96356.13
2022-09-12T11:53:40.505Z,96400.81
2022-09-12T11:56:13.336Z,96414.06
2022-09-12T11:58:42.026Z,96413.09
2022-09-12T12:01:16.186Z,96409.53
2022-09-12T12:03:46.155Z,96410.22
2022-09-12T12:06:19.199Z,96411.50
2022-09-12T12:08:48.226Z,96408.56
2022-09-12T12:11:17.265Z,96408.38
2022-09-12T12:13:48.790Z,96382.41
2022-09-12T12:16:22.613Z,96400.84
2022-09-12T12:18:55.190Z,96392.97
2022-09-12T12:21:37.479Z,96355.69
2022-09-12T12:24:17.395Z,96400.22
2022-09-12T12:26:56.679Z,96396.78
2022-09-12T12:29:44.095Z,96398.22
2022-09-12T12:32:25.014Z,96393.66
2022-09-12T12:35:03.607Z,96398.06
2022-09-12T12:37:54.167Z,96390.19
2022-09-12T12:40:29.937Z,96388.91
2022-09-12T12:43:31.980Z,96394.97
2022-09-12T12:46:15.767Z,96380.00
2022-09-12T12:49:02.607Z,96383.66
2022-09-12T12:51:48.325Z,96352.38
2022-09-12T12:54:50.614Z,96380.03
2022-09-12T12:57:28.545Z,96379.38
2022-09-12T12:59:58.971Z,96376.53
2022-09-12T13:02:31.928Z,96371.19
2022-09-12T13:05:03.068Z,96344.63
2022-09-12T13:07:33.960Z,96373.22
2022-09-12T13:10:03.121Z,96378.28
2022-09-12T13:12:34.021Z,96377.41
2022-09-12T13:15:03.348Z,96343.28
2022-09-12T13:17:35.366Z,96371.47
2022-09-12T13:20:29.258Z,96361.72
2022-09-12T13:22:58.060Z,96346.81
2022-09-12T13:25:29.474Z,96362.28
2022-09-12T13:28:03.668Z,96363.06
2022-09-12T13:30:32.982Z,96356.41
2022-09-12T13:33:09.129Z,96348.47
2022-09-12T13:35:45.924Z,96359.16
2022-09-12T13:38:19.520Z,96352.25
2022-09-12T13:40:58.953Z,96355.34
2022-09-12T13:43:37.979Z,96348.50
2022-09-12T13:46:07.990Z,96350.78
2022-09-12T13:48:36.162Z,96352.47
2022-09-12T13:51:06.865Z,96345.44
2022-09-12T13:53:43.435Z,96346.00
2022-09-12T13:56:17.408Z,96338.59
2022-09-12T13:58:54.026Z,96334.59
2022-09-12T14:01:22.640Z,96315.53
2022-09-12T14:04:09.344Z,96333.13
2022-09-12T14:06:49.586Z,96324.03
2022-09-12T14:09:26.072Z,96338.72
2022-09-12T14:11:54.254Z,96333.75
2022-09-12T14:14:28.247Z,96339.91
2022-09-12T14:16:56.160Z,96337.00
2022-09-12T14:19:26.019Z,96341.53
2022-09-12T14:21:55.836Z,96342.19
2022-09-12T14:24:24.433Z,96341.19
2022-09-12T14:26:54.232Z,96339.72
2022-09-12T14:29:23.880Z,96333.56
2022-09-12T14:32:02.590Z,96339.22
2022-09-12T14:34:30.915Z,96337.13
2022-09-12T14:37:00.360Z,96335.53
2022-09-12T14:39:31.989Z,96341.69
2022-09-12T14:42:06.048Z,96338.13
2022-09-12T14:44:34.423Z,96316.56
2022-09-12T14:47:13.795Z,96331.00
2022-09-12T14:49:42.338Z,96333.56
2022-09-12T14:52:24.052Z,96331.94
2022-09-12T14:54:59.683Z,96322.56
2022-09-12T14:57:36.731Z,96323.03
2022-09-12T15:00:20.365Z,96283.59
2022-09-12T15:02:48.924Z,96312.34
2022-09-12T15:05:20.281Z,96318.16
2022-09-12T15:07:58.755Z,96324.47
2022-09-12T15:10:31.105Z,96318.16
2022-09-12T15:13:16.989Z,96314.56
2022-09-12T15:15:46.322Z,96314.22
2022-09-12T15:18:14.921Z,96327.91
2022-09-12T15:20:44.235Z,96316.66
2022-09-12T15:23:18.627Z,96320.78
2022-09-12T15:25:46.946Z,96311.31
2022-09-12T15:28:18.747Z,96300.28
2022-09-12T15:30:49.540Z,96276.53
2022-09-12T15:33:18.236Z,96315.72
2022-09-12T15:35:46.210Z,96317.22
2022-09-12T15:38:15.804Z,96318.28
2022-09-12T15:40:43.938Z,96278.03
2022-09-12T15:43:13.819Z,96309.31
2022-09-12T15:45:43.609Z,96312.59
2022-09-12T15:48:11.836Z,96305.97
2022-09-12T15:50:39.726Z,96312.28
2022-09-12T15:53:07.730Z,96265.16
2022-09-12T15:55:37.450Z,96319.00
2022-09-12T15:58:07.329Z,96305.94
2022-09-12T16:00:35.491Z,96310.59
2022-09-12T16:03:03.496Z,96314.16
2022-09-12T16:05:31.518Z,96307.94
2022-09-12T16:07:59.522Z,96314.09
2022-09-12T16:10:30.282Z,96311.44
2022-09-12T16:12:59.771Z,96308.84
2022-09-12T16:15:27.795Z,96286.59
2022-09-12T16:17:55.750Z,96311.72
2022-09-12T16:20:24.390Z,96313.13
2022-09-12T16:22:52.355Z,96316.91
2022-09-12T16:25:20.245Z,96313.94
2022-09-12T16:27:48.158Z,96271.72
2022-09-12T16:30:17.633Z,96311.03
2022-09-12T16:32:46.332Z,96308.72
2022-09-12T16:35:14.285Z,96305.69
2022-09-12T16:37:42.341Z,96301.97
2022-09-12T16:40:11.736Z,96304.31
2022-09-12T16:42:43.541Z,96304.41
2022-09-12T16:45:12.491Z,96295.81
2022-09-12T16:47:41.873Z,96307.66
2022-09-12T16:50:10.187Z,96307.81
2022-09-12T16:52:38.081Z,96308.41
2022-09-12T16:55:06.960Z,96310.47
2022-09-12T16:57:35.146Z,96261.25
2022-09-12T17:00:03.585Z,96303.88
2022-09-12T17:02:31.527Z,96303.88
2022-09-12T17:05:00.785Z,96301.72
2022-09-12T17:07:28.727Z,96282.97
2022-09-12T17:09:57.001Z,96294.09
2022-09-12T17:12:25.210Z,96294.38
2022-09-12T17:14:53.130Z,96292.47
2022-09-12T17:17:21.017Z,96292.69
2022-09-12T17:19:48.982Z,96288.63
2022-09-12T17:22:18.258Z,96293.56
2022-09-12T17:24:46.188Z,96293.00
2022-09-12T17:27:14.427Z,96293.31
2022-09-12T17:29:42.385Z,96296.69
2022-09-12T17:32:12.512Z,96285.94
2022-09-12T17:34:42.369Z,96293.09
2022-09-12T17:37:10.282Z,96303.38
2022-09-12T17:39:39.613Z,96289.72
2022-09-12T17:42:07.991Z,96294.09
2022-09-12T17:44:36.139Z,96308.50
2022-09-12T17:47:05.788Z,96307.78
2022-09-12T17:49:33.998Z,96302.16
2022-09-12T17:52:01.969Z,96289.06
2022-09-12T17:54:29.913Z,96284.97
2022-09-12T17:56:59.402Z,96300.00
2022-09-12T17:59:27.357Z,96300.53
2022-09-12T18:02:12.703Z,96296.31
2022-09-12T18:04:41.673Z,96298.91
2022-09-12T18:07:09.646Z,96203.94
2022-09-12T18:09:37.573Z,96293.84
2022-09-12T18:12:07.297Z,96297.03
2022-09-12T18:14:35.476Z,96296.19
2022-09-12T18:17:03.390Z,96293.44
2022-09-12T18:19:31.991Z,96301.47
2022-09-12T18:21:59.921Z,96299.69
2022-09-12T18:24:27.949Z,96287.63
2022-09-12T18:26:57.578Z,96300.69
2022-09-12T18:29:28.026Z,96301.06
2022-09-12T18:31:56.080Z,96299.13
2022-09-12T18:34:24.008Z,96299.84
2022-09-12T18:36:54.305Z,96290.69
2022-09-12T18:39:26.867Z,96283.00
2022-09-12T18:41:55.945Z,96293.97
2022-09-12T18:44:23.948Z,96294.22
2022-09-12T18:46:53.354Z,96294.94
2022-09-12T18:49:21.507Z,96295.19
2022-09-12T18:51:49.440Z,96267.16
2022-09-12T18:54:17.909Z,96297.28
2022-09-12T18:56:45.903Z,96297.97
2022-09-12T18:59:14.936Z,96306.38
2022-09-12T19:01:43.185Z,96290.06
2022-09-12T19:04:13.624Z,96308.97
2022-09-12T19:06:43.127Z,96318.63
2022-09-12T19:09:12.962Z,96281.91
2022-09-12T19:11:48.598Z,96310.34
2022-09-12T19:14:17.063Z,96307.53
2022-09-12T19:16:44.962Z,96307.69
2022-09-12T19:19:14.289Z,96294.81
2022-09-12T19:21:42.889Z,96307.31
2022-09-12T19:24:11.542Z,96309.06
2022-09-12T19:26:40.090Z,96294.72
2022-09-12T19:29:08.594Z,96298.34
2022-09-12T19:31:36.712Z,96298.94
2022-09-12T19:34:06.002Z,96304.28
2022-09-12T19:36:51.172Z,96294.25
2022-09-12T19:39:20.283Z,96293.75
2022-09-12T19:41:48.416Z,96295.03
2022-09-12T19:44:19.135Z,96302.16
2022-09-12T19:46:47.184Z,96289.69
2022-09-12T19:49:15.126Z,96294.25
2022-09-12T19:51:44.857Z,96285.56
2022-09-12T19:54:12.734Z,96293.91
2022-09-12T19:56:40.760Z,96289.69
2022-09-12T19:59:08.820Z,96293.47
2022-09-12T20:01:37.710Z,96288.34
2022-09-12T20:04:06.815Z,96292.50
2022-09-12T20:06:34.914Z,96294.94
2022-09-12T20:09:04.557Z,96296.69
2022-09-12T20:11:32.491Z,96292.81
2022-09-12T20:14:00.476Z,96290.72
2022-09-12T20:16:30.068Z,96293.16
2022-09-12T20:19:00.040Z,96285.78
2022-09-12T20:21:31.973Z,96286.69
2022-09-12T20:24:06.268Z,96274.53
2022-09-12T20:26:34.764Z,96278.75
2022-09-12T20:29:03.283Z,96279.00
2022-09-12T20:31:31.984Z,96274.66
2022-09-12T20:34:00.137Z,96274.38
2022-09-12T20:36:28.149Z,96268.75
2022-09-12T20:38:57.884Z,96269.31
2022-09-12T20:41:28.536Z,96266.75
2022-09-12T20:43:57.180Z,96244.69
2022-09-12T20:46:26.513Z,96270.22
2022-09-12T20:48:54.814Z,96258.81
2022-09-12T20:51:23.184Z,96155.53
2022-09-12T20:53:54.444Z,96264.72
2022-09-12T20:56:22.861Z,96265.69
2022-09-12T20:58:52.262Z,96268.38
2022-09-12T21:01:20.372Z,96269.63
2022-09-12T21:03:48.489Z,96263.19
2022-09-12T21:06:17.633Z,96269.94
2022-09-12T21:08:46.037Z,96271.88
2022-09-12T21:11:14.052Z,96275.34
2022-09-12T21:13:42.256Z,96250.75
2022-09-12T21:16:13.458Z,96269.44
2022-09-12T21:18:42.297Z,96236.03
2022-09-12T21:21:11.499Z,96240.31
2022-09-12T21:23:39.585Z,96270.47
2022-09-12T21:26:08.040Z,96273.22
2022-09-12T21:28:35.960Z,96273.34
2022-09-12T21:31:03.877Z,96277.09
2022-09-12T21:33:33.212Z,96240.59
2022-09-12T21:36:03.837Z,96283.63
2022-09-12T21:38:32.188Z,96271.53
2022-09-12T21:41:08.125Z,96279.63
2022-09-12T21:43:36.456Z,96274.41
2022-09-12T21:46:05.430Z,96275.84
2022-09-12T21:48:35.161Z,96275.84
2022-09-12T21:51:03.293Z,96275.47
2022-09-12T21:53:31.308Z,96246.00
2022-09-12T21:56:02.529Z,96231.69
2022-09-12T21:58:30.514Z,96264.28
2022-09-12T22:00:59.814Z,96247.81
2022-09-12T22:03:29.464Z,96260.59
2022-09-12T22:06:02.898Z,96183.44
2022-09-12T22:08:32.178Z,96248.53
2022-09-12T22:11:00.917Z,96259.84
2022-09-12T22:13:29.576Z,96257.78
2022-09-12T22:15:57.512Z,96255.66
2022-09-12T22:18:25.517Z,96259.84
2022-09-12T22:21:01.853Z,96256.38
2022-09-12T22:23:47.259Z,96249.25
2022-09-12T22:26:15.634Z,96253.09
2022-09-12T22:28:43.893Z,96242.69
2022-09-12T22:31:12.624Z,96247.91
2022-09-12T22:33:41.212Z,96240.84
2022-09-12T22:36:11.057Z,96243.25
2022-09-12T22:38:38.996Z,96239.47
2022-09-12T22:41:08.275Z,96232.50
2022-09-12T22:43:36.566Z,96237.97
2022-09-12T22:46:07.203Z,96247.47
2022-09-12T22:48:35.120Z,96241.72
2022-09-12T22:51:03.253Z,96247.28
2022-09-12T22:53:32.627Z,96239.63
2022-09-12T22:56:00.617Z,96236.63
2022-09-12T22:58:28.568Z,96223.72
2022-09-12T23:00:56.541Z,96230.50
2022-09-12T23:03:24.626Z,96220.66
2022-09-12T23:05:52.573Z,96234.38
2022-09-12T23:08:20.513Z,96236.81
2022-09-12T23:10:49.774Z,96222.00
2022-09-12T23:13:17.740Z,96224.44
2022-09-12T23:15:45.627Z,96197.47
2022-09-12T23:18:13.545Z,96211.91
2022-09-12T23:20:41.429Z,96212.09
2022-09-12T23:23:09.684Z,96212.19
2022-09-12T23:25:37.980Z,96212.91
2022-09-12T23:28:07.273Z,96210.94
2022-09-12T23:30:35.173Z,96208.41
2022-09-12T23:33:03.093Z,96184.56
2022-09-12T23:35:30.977Z,96209.81
2022-09-12T23:37:58.925Z,96214.97
2022-09-12T23:40:26.823Z,96205.34
2022-09-12T23:42:54.709Z,96202.97
2022-09-12T23:45:24.032Z,96199.81
2022-09-12T23:47:51.977Z,96202.38
2022-09-12T23:50:19.897Z,96202.91
2022-09-12T23:52:47.865Z,96197.16
2022-09-12T23:55:15.932Z,96200.91
2022-09-12T23:57:43.821Z,96198.63
